sensor_id;sensor_type;location;lat;lon;timestamp;pressure;altitude;pressure_sealevel;temperature;humidity
40708;BME280;26392;42.696;23.350;2023-02-03T00:00:51;95528.91;;;3.22;100.00
40708;BME280;26392;42.696;23.350;2023-02-03T00:03:17;95532.00;;;3.19;100.00
40708;BME280;26392;42.696;23.350;2023-02-03T00:05:42;95538.03;;;3.21;100.00
40708;BME280;26392;42.696;23.350;2023-02-03T00:08:08;95532.00;;;3.12;100.00
40708;BME280;26392;42.696;23.350;2023-02-03T00:10:35;95540.09;;;3.12;100.00
40708;BME280;26392;42.696;23.350;2023-02-03T00:13:01;95541.50;;;3.01;100.00
40708;BME280;26392;42.696;23.350;2023-02-03T00:15:27;95535.06;;;2.96;100.00
40708;BME280;26392;42.696;23.350;2023-02-03T00:17:52;95564.69;;;2.96;100.00
40708;BME280;26392;42.696;23.350;2023-02-03T00:20:18;95549.97;;;2.98;100.00
40708;BME280;26392;42.696;23.350;2023-02-03T00:22:43;95547.53;;;3.03;100.00
40708;BME280;26392;42.696;23.350;2023-02-03T00:25:09;95556.84;;;3.07;100.00
40708;BME280;26392;42.696;23.350;2023-02-03T00:27:34;95557.06;;;3.06;100.00
40708;BME280;26392;42.696;23.350;2023-02-03T00:30:00;95545.66;;;3.04;100.00
40708;BME280;26392;42.696;23.350;2023-02-03T00:32:25;95546.66;;;2.96;100.00
40708;BME280;26392;42.696;23.350;2023-02-03T00:34:51;95551.38;;;2.87;100.00
40708;BME280;26392;42.696;23.350;2023-02-03T00:37:16;95557.19;;;2.91;100.00
40708;BME280;26392;42.696;23.350;2023-02-03T00:39:42;95564.66;;;2.89;100.00
40708;BME280;26392;42.696;23.350;2023-02-03T00:42:07;95570.66;;;2.91;100.00
40708;BME280;26392;42.696;23.350;2023-02-03T00:44:33;95573.78;;;2.95;100.00
40708;BME280;26392;42.696;23.350;2023-02-03T00:46:58;95573.31;;;2.84;100.00
40708;BME280;26392;42.696;23.350;2023-02-03T00:49:24;95578.72;;;2.84;100.00
40708;BME280;26392;42.696;23.350;2023-02-03T00:51:49;95558.56;;;2.74;100.00
40708;BME280;26392;42.696;23.350;2023-02-03T00:54:15;95577.84;;;2.77;100.00
40708;BME280;26392;42.696;23.350;2023-02-03T00:56:41;95573.31;;;2.78;100.00
40708;BME280;26392;42.696;23.350;2023-02-03T00:59:06;95580.31;;;2.72;100.00
40708;BME280;26392;42.696;23.350;2023-02-03T01:01:33;95593.16;;;2.77;100.00
40708;BME280;26392;42.696;23.350;2023-02-03T01:03:58;95585.72;;;2.79;100.00
40708;BME280;26392;42.696;23.350;2023-02-03T01:06:24;95583.03;;;2.85;100.00
40708;BME280;26392;42.696;23.350;2023-02-03T01:08:50;95588.22;;;2.80;100.00
40708;BME280;26392;42.696;23.350;2023-02-03T01:11:18;95598.19;;;2.86;100.00
40708;BME280;26392;42.696;23.350;2023-02-03T01:13:44;95598.78;;;2.88;100.00
40708;BME280;26392;42.696;23.350;2023-02-03T01:16:10;95596.66;;;2.77;100.00
40708;BME280;26392;42.696;23.350;2023-02-03T01:18:37;95595.84;;;2.77;100.00
40708;BME280;26392;42.696;23.350;2023-02-03T01:21:09;95583.41;;;2.69;100.00
40708;BME280;26392;42.696;23.350;2023-02-03T01:23:35;95581.44;;;2.50;100.00
40708;BME280;26392;42.696;23.350;2023-02-03T01:26:06;95576.69;;;2.52;100.00
40708;BME280;26392;42.696;23.350;2023-02-03T01:28:32;95557.59;;;2.40;100.00
40708;BME280;26392;42.696;23.350;2023-02-03T01:31:16;95577.88;;;2.42;100.00
40708;BME280;26392;42.696;23.350;2023-02-03T01:33:43;95575.16;;;2.36;100.00
40708;BME280;26392;42.696;23.350;2023-02-03T01:36:11;95585.69;;;2.37;100.00
40708;BME280;26392;42.696;23.350;2023-02-03T01:38:37;95581.34;;;2.36;100.00
40708;BME280;26392;42.696;23.350;2023-02-03T01:41:04;95582.41;;;2.35;100.00
40708;BME280;26392;42.696;23.350;2023-02-03T01:43:32;95588.84;;;2.41;100.00
40708;BME280;26392;42.696;23.350;2023-02-03T01:48:46;95599.59;;;2.41;100.00
40708;BME280;26392;42.696;23.350;2023-02-03T01:51:11;95598.72;;;2.34;100.00
40708;BME280;26392;42.696;23.350;2023-02-03T01:53:37;95599.75;;;2.33;100.00
40708;BME280;26392;42.696;23.350;2023-02-03T01:56:03;95594.56;;;2.31;100.00
40708;BME280;26392;42.696;23.350;2023-02-03T01:58:32;95603.66;;;2.30;100.00
40708;BME280;26392;42.696;23.350;2023-02-03T02:01:01;95601.91;;;2.16;100.00
40708;BME280;26392;42.696;23.350;2023-02-03T02:03:41;95606.28;;;2.23;100.00
40708;BME280;26392;42.696;23.350;2023-02-03T02:06:10;95608.53;;;2.20;100.00
40708;BME280;26392;42.696;23.350;2023-02-03T02:08:37;95604.81;;;2.21;100.00
40708;BME280;26392;42.696;23.350;2023-02-03T02:11:05;95611.22;;;2.20;100.00
40708;BME280;26392;42.696;23.350;2023-02-03T02:13:32;95605.84;;;2.20;100.00
40708;BME280;26392;42.696;23.350;2023-02-03T02:21:27;95609.81;;;2.24;100.00
40708;BME280;26392;42.696;23.350;2023-02-03T02:29:46;95620.13;;;2.20;100.00
40708;BME280;26392;42.696;23.350;2023-02-03T02:38:06;95627.75;;;2.17;100.00
40708;BME280;26392;42.696;23.350;2023-02-03T02:40:52;95629.56;;;2.10;100.00
40708;BME280;26392;42.696;23.350;2023-02-03T02:43:28;95642.25;;;2.16;100.00
40708;BME280;26392;42.696;23.350;2023-02-03T02:46:16;95635.19;;;2.15;100.00
40708;BME280;26392;42.696;23.350;2023-02-03T02:51:17;95641.34;;;2.09;100.00
40708;BME280;26392;42.696;23.350;2023-02-03T02:53:50;95643.38;;;2.07;100.00
40708;BME280;26392;42.696;23.350;2023-02-03T02:56:17;95638.59;;;2.02;100.00
40708;BME280;26392;42.696;23.350;2023-02-03T02:58:45;95618.31;;;1.99;100.00
40708;BME280;26392;42.696;23.350;2023-02-03T03:01:13;95634.44;;;1.99;100.00
40708;BME280;26392;42.696;23.350;2023-02-03T03:03:40;95635.66;;;1.97;100.00
40708;BME280;26392;42.696;23.350;2023-02-03T03:06:12;95634.44;;;1.99;100.00
40708;BME280;26392;42.696;23.350;2023-02-03T03:08:58;95641.22;;;1.95;100.00
40708;BME280;26392;42.696;23.350;2023-02-03T03:11:28;95636.44;;;1.91;100.00
40708;BME280;26392;42.696;23.350;2023-02-03T03:13:55;95638.34;;;1.97;100.00
40708;BME280;26392;42.696;23.350;2023-02-03T03:16:26;95641.59;;;1.92;100.00
40708;BME280;26392;42.696;23.350;2023-02-03T03:18:56;95647.09;;;1.84;100.00
40708;BME280;26392;42.696;23.350;2023-02-03T03:21:27;95646.72;;;1.87;100.00
40708;BME280;26392;42.696;23.350;2023-02-03T03:23:58;95651.88;;;1.82;100.00
40708;BME280;26392;42.696;23.350;2023-02-03T03:26:38;95659.94;;;1.82;100.00
40708;BME280;26392;42.696;23.350;2023-02-03T03:29:12;95651.88;;;1.82;100.00
40708;BME280;26392;42.696;23.350;2023-02-03T03:31:40;95664.44;;;1.82;100.00
40708;BME280;26392;42.696;23.350;2023-02-03T03:34:08;95659.06;;;1.82;100.00
40708;BME280;26392;42.696;23.350;2023-02-03T03:36:45;95656.59;;;1.80;100.00
40708;BME280;26392;42.696;23.350;2023-02-03T03:42:22;95665.31;;;1.82;100.00
40708;BME280;26392;42.696;23.350;2023-02-03T03:50:10;95667.53;;;1.78;100.00
40708;BME280;26392;42.696;23.350;2023-02-03T03:52:38;95664.84;;;1.78;100.00
40708;BME280;26392;42.696;23.350;2023-02-03T03:55:07;95652.81;;;1.74;100.00
40708;BME280;26392;42.696;23.350;2023-02-03T03:58:02;95657.09;;;1.69;100.00
40708;BME280;26392;42.696;23.350;2023-02-03T04:00:31;95647.31;;;1.61;100.00
40708;BME280;26392;42.696;23.350;2023-02-03T04:03:01;95662.78;;;1.59;100.00
40708;BME280;26392;42.696;23.350;2023-02-03T04:05:29;95673.25;;;1.54;100.00
40708;BME280;26392;42.696;23.350;2023-02-03T04:07:56;95666.88;;;1.55;100.00
40708;BME280;26392;42.696;23.350;2023-02-03T04:12:54;95683.56;;;1.50;100.00
40708;BME280;26392;42.696;23.350;2023-02-03T04:15:19;95683.56;;;1.50;100.00
40708;BME280;26392;42.696;23.350;2023-02-03T04:17:45;95681.91;;;1.49;100.00
40708;BME280;26392;42.696;23.350;2023-02-03T04:20:11;95688.84;;;1.44;100.00
40708;BME280;26392;42.696;23.350;2023-02-03T04:22:36;95709.13;;;1.46;100.00
40708;BME280;26392;42.696;23.350;2023-02-03T04:25:02;95703.75;;;1.46;100.00
40708;BME280;26392;42.696;23.350;2023-02-03T04:27:27;95718.19;;;1.45;100.00
40708;BME280;26392;42.696;23.350;2023-02-03T04:29:53;95712.81;;;1.45;100.00
40708;BME280;26392;42.696;23.350;2023-02-03T04:32:18;95715.13;;;1.48;100.00
40708;BME280;26392;42.696;23.350;2023-02-03T04:34:44;95712.91;;;1.52;100.00
40708;BME280;26392;42.696;23.350;2023-02-03T04:37:10;95724.09;;;1.55;100.00
40708;BME280;26392;42.696;23.350;2023-02-03T04:39:35;95727.16;;;1.52;100.00
40708;BME280;26392;42.696;23.350;2023-02-03T04:42:01;95735.66;;;1.56;100.00
40708;BME280;26392;42.696;23.350;2023-02-03T04:44:26;95736.50;;;1.56;100.00
40708;BME280;26392;42.696;23.350;2023-02-03T04:46:52;95734.34;;;1.67;100.00
40708;BME280;26392;42.696;23.350;2023-02-03T04:49:17;95734.81;;;1.70;100.00
40708;BME280;26392;42.696;23.350;2023-02-03T04:51:42;95743.69;;;1.71;100.00
40708;BME280;26392;42.696;23.350;2023-02-03T04:54:11;95744.28;;;1.66;100.00
40708;BME280;26392;42.696;23.350;2023-02-03T04:56:37;95734.91;;;1.62;100.00
40708;BME280;26392;42.696;23.350;2023-02-03T04:59:03;95739.84;;;1.59;100.00
40708;BME280;26392;42.696;23.350;2023-02-03T05:01:28;95724.22;;;1.47;100.00
40708;BME280;26392;42.696;23.350;2023-02-03T05:03:54;95755.31;;;1.56;100.00
40708;BME280;26392;42.696;23.350;2023-02-03T05:06:23;95760.88;;;1.55;100.00
40708;BME280;26392;42.696;23.350;2023-02-03T05:08:50;95763.84;;;1.60;100.00
40708;BME280;26392;42.696;23.350;2023-02-03T05:11:16;95762.53;;;1.56;100.00
40708;BME280;26392;42.696;23.350;2023-02-03T05:13:41;95757.00;;;1.58;100.00
40708;BME280;26392;42.696;23.350;2023-02-03T05:16:06;95763.75;;;1.53;100.00
40708;BME280;26392;42.696;23.350;2023-02-03T05:18:32;95758.47;;;1.60;100.00
40708;BME280;26392;42.696;23.350;2023-02-03T05:20:57;95776.06;;;1.63;100.00
40708;BME280;26392;42.696;23.350;2023-02-03T05:23:23;95774.59;;;1.60;100.00
40708;BME280;26392;42.696;23.350;2023-02-03T05:25:48;95780.03;;;1.67;100.00
40708;BME280;26392;42.696;23.350;2023-02-03T05:28:14;95775.31;;;1.69;100.00
40708;BME280;26392;42.696;23.350;2023-02-03T05:30:39;95778.59;;;1.71;100.00
40708;BME280;26392;42.696;23.350;2023-02-03T05:33:05;95775.31;;;1.69;100.00
40708;BME280;26392;42.696;23.350;2023-02-03T05:35:30;95769.94;;;1.69;100.00
40708;BME280;26392;42.696;23.350;2023-02-03T05:37:56;95777.50;;;1.65;100.00
40708;BME280;26392;42.696;23.350;2023-02-03T05:40:21;95782.81;;;1.59;100.00
40708;BME280;26392;42.696;23.350;2023-02-03T05:43:05;95783.19;;;1.55;100.00
40708;BME280;26392;42.696;23.350;2023-02-03T05:45:32;95774.97;;;1.57;100.00
40708;BME280;26392;42.696;23.350;2023-02-03T05:47:57;95775.22;;;1.47;100.00
40708;BME280;26392;42.696;23.350;2023-02-03T05:50:22;95768.22;;;1.46;100.00
40708;BME280;26392;42.696;23.350;2023-02-03T05:52:48;95770.25;;;1.44;100.00
40708;BME280;26392;42.696;23.350;2023-02-03T05:55:14;95785.16;;;1.47;100.00
40708;BME280;26392;42.696;23.350;2023-02-03T05:57:40;95785.72;;;1.57;100.00
40708;BME280;26392;42.696;23.350;2023-02-03T06:00:06;95790.22;;;1.56;100.00
40708;BME280;26392;42.696;23.350;2023-02-03T06:02:32;95794.38;;;1.59;100.00
40708;BME280;26392;42.696;23.350;2023-02-03T06:04:57;95791.16;;;1.64;100.00
40708;BME280;26392;42.696;23.350;2023-02-03T06:07:23;95795.31;;;1.66;100.00
40708;BME280;26392;42.696;23.350;2023-02-03T06:09:48;95790.13;;;1.65;100.00
40708;BME280;26392;42.696;23.350;2023-02-03T06:12:14;95799.75;;;1.59;100.00
40708;BME280;26392;42.696;23.350;2023-02-03T06:14:40;95785.78;;;1.64;100.00
40708;BME280;26392;42.696;23.350;2023-02-03T06:17:05;95800.47;;;1.68;100.00
40708;BME280;26392;42.696;23.350;2023-02-03T06:19:31;95789.66;;;1.61;100.00
40708;BME280;26392;42.696;23.350;2023-02-03T06:21:56;95801.13;;;1.70;100.00
40708;BME280;26392;42.696;23.350;2023-02-03T06:24:22;95794.94;;;1.69;100.00
40708;BME280;26392;42.696;23.350;2023-02-03T06:26:47;95805.38;;;1.79;100.00
40708;BME280;26392;42.696;23.350;2023-02-03T06:29:12;95804.09;;;1.75;100.00
40708;BME280;26392;42.696;23.350;2023-02-03T06:31:38;95821.97;;;1.83;100.00
40708;BME280;26392;42.696;23.350;2023-02-03T06:34:03;95816.59;;;1.83;100.00
40708;BME280;26392;42.696;23.350;2023-02-03T06:36:29;95822.88;;;1.90;100.00
40708;BME280;26392;42.696;23.350;2023-02-03T06:38:54;95836.50;;;1.88;100.00
40708;BME280;26392;42.696;23.350;2023-02-03T06:41:20;95821.28;;;1.95;100.00
40708;BME280;26392;42.696;23.350;2023-02-03T06:43:51;95842.28;;;2.07;100.00
40708;BME280;26392;42.696;23.350;2023-02-03T06:46:16;95844.75;;;2.23;100.00
40708;BME280;26392;42.696;23.350;2023-02-03T06:48:42;95857.16;;;2.24;100.00
40708;BME280;26392;42.696;23.350;2023-02-03T06:51:07;95859.13;;;2.30;100.00
40708;BME280;26392;42.696;23.350;2023-02-03T06:53:33;95850.28;;;2.36;100.00
40708;BME280;26392;42.696;23.350;2023-02-03T06:55:58;95847.84;;;2.41;100.00
40708;BME280;26392;42.696;23.350;2023-02-03T06:58:26;95850.81;;;2.46;100.00
40708;BME280;26392;42.696;23.350;2023-02-03T07:00:54;95837.59;;;2.52;100.00
40708;BME280;26392;42.696;23.350;2023-02-03T07:03:20;95852.78;;;2.59;100.00
40708;BME280;26392;42.696;23.350;2023-02-03T07:05:45;95845.34;;;2.61;100.00
40708;BME280;26392;42.696;23.350;2023-02-03T07:08:11;95853.47;;;2.68;100.00
40708;BME280;26392;42.696;23.350;2023-02-03T07:10:36;95831.16;;;2.96;100.00
40708;BME280;26392;42.696;23.350;2023-02-03T07:13:05;95839.63;;;3.21;100.00
40708;BME280;26392;42.696;23.350;2023-02-03T07:15:31;95842.13;;;3.22;100.00
40708;BME280;26392;42.696;23.350;2023-02-03T07:17:56;95842.28;;;3.14;100.00
40708;BME280;26392;42.696;23.350;2023-02-03T07:20:23;95841.66;;;2.90;100.00
40708;BME280;26392;42.696;23.350;2023-02-03T07:22:56;95826.88;;;2.80;100.00
40708;BME280;26392;42.696;23.350;2023-02-03T07:25:23;95834.47;;;2.69;100.00
40708;BME280;26392;42.696;23.350;2023-02-03T07:27:49;95823.88;;;2.68;100.00
40708;BME280;26392;42.696;23.350;2023-02-03T07:30:14;95837.34;;;2.68;100.00
40708;BME280;26392;42.696;23.350;2023-02-03T07:32:40;95840.41;;;2.65;100.00
40708;BME280;26392;42.696;23.350;2023-02-03T07:35:05;95843.09;;;2.65;100.00
40708;BME280;26392;42.696;23.350;2023-02-03T07:37:32;95850.13;;;2.66;100.00
40708;BME280;26392;42.696;23.350;2023-02-03T07:39:58;95844.41;;;2.69;100.00
40708;BME280;26392;42.696;23.350;2023-02-03T07:42:23;95851.44;;;2.70;100.00
40708;BME280;26392;42.696;23.350;2023-02-03T07:44:50;95862.63;;;2.74;100.00
40708;BME280;26392;42.696;23.350;2023-02-03T07:47:15;95847.31;;;2.74;100.00
40708;BME280;26392;42.696;23.350;2023-02-03T07:49:40;95860.59;;;2.76;100.00
40708;BME280;26392;42.696;23.350;2023-02-03T07:52:07;95855.59;;;2.73;100.00
40708;BME280;26392;42.696;23.350;2023-02-03T07:54:32;95856.25;;;2.75;100.00
40708;BME280;26392;42.696;23.350;2023-02-03T07:56:57;95856.03;;;2.76;100.00
40708;BME280;26392;42.696;23.350;2023-02-03T07:59:23;95858.59;;;2.84;100.00
40708;BME280;26392;42.696;23.350;2023-02-03T08:01:48;95855.91;;;2.84;100.00
40708;BME280;26392;42.696;23.350;2023-02-03T08:04:14;95857.00;;;2.90;100.00
40708;BME280;26392;42.696;23.350;2023-02-03T08:06:42;95845.53;;;2.81;100.00
40708;BME280;26392;42.696;23.350;2023-02-03T08:09:07;95859.94;;;2.95;100.00
40708;BME280;26392;42.696;23.350;2023-02-03T08:11:33;95852.16;;;3.07;100.00
40708;BME280;26392;42.696;23.350;2023-02-03T08:13:58;95865.91;;;3.19;100.00
40708;BME280;26392;42.696;23.350;2023-02-03T08:16:24;95858.22;;;3.16;100.00
40708;BME280;26392;42.696;23.350;2023-02-03T08:18:49;95861.22;;;3.27;100.00
40708;BME280;26392;42.696;23.350;2023-02-03T08:21:14;95871.84;;;3.35;100.00
40708;BME280;26392;42.696;23.350;2023-02-03T08:23:40;95873.75;;;3.42;100.00
40708;BME280;26392;42.696;23.350;2023-02-03T08:26:05;95872.66;;;3.36;99.39
40708;BME280;26392;42.696;23.350;2023-02-03T08:28:31;95874.75;;;3.34;98.04
40708;BME280;26392;42.696;23.350;2023-02-03T08:30:56;95864.44;;;3.44;97.60
40708;BME280;26392;42.696;23.350;2023-02-03T08:33:22;95864.91;;;3.48;97.09
40708;BME280;26392;42.696;23.350;2023-02-03T08:35:48;95873.13;;;3.74;98.10
40708;BME280;26392;42.696;23.350;2023-02-03T08:38:14;95869.28;;;3.90;96.79
40708;BME280;26392;42.696;23.350;2023-02-03T08:40:40;95880.50;;;4.00;92.64
40708;BME280;26392;42.696;23.350;2023-02-03T08:43:05;95894.44;;;3.69;87.11
40708;BME280;26392;42.696;23.350;2023-02-03T08:45:31;95888.03;;;3.70;85.26
40708;BME280;26392;42.696;23.350;2023-02-03T08:47:56;95884.72;;;3.75;84.34
40708;BME280;26392;42.696;23.350;2023-02-03T08:50:22;95893.69;;;3.82;82.46
40708;BME280;26392;42.696;23.350;2023-02-03T08:52:47;95888.16;;;3.97;81.09
40708;BME280;26392;42.696;23.350;2023-02-03T08:55:13;95907.13;;;4.17;78.10
40708;BME280;26392;42.696;23.350;2023-02-03T08:57:38;95898.78;;;4.05;73.99
40708;BME280;26392;42.696;23.350;2023-02-03T09:00:07;95898.22;;;4.16;75.03
40708;BME280;26392;42.696;23.350;2023-02-03T09:02:33;95892.63;;;4.18;74.71
40708;BME280;26392;42.696;23.350;2023-02-03T09:04:58;95908.00;;;4.17;74.97
40708;BME280;26392;42.696;23.350;2023-02-03T09:07:24;95893.47;;;4.18;75.05
40708;BME280;26392;42.696;23.350;2023-02-03T09:09:49;95891.34;;;4.07;75.67
40708;BME280;26392;42.696;23.350;2023-02-03T09:12:15;95891.91;;;3.96;78.04
40708;BME280;26392;42.696;23.350;2023-02-03T09:14:41;95880.16;;;4.10;79.46
40708;BME280;26392;42.696;23.350;2023-02-03T09:17:08;95885.31;;;4.05;76.28
40708;BME280;26392;42.696;23.350;2023-02-03T09:19:34;95870.59;;;4.08;78.60
40708;BME280;26392;42.696;23.350;2023-02-03T09:21:59;95890.94;;;4.17;78.40
40708;BME280;26392;42.696;23.350;2023-02-03T09:24:25;95877.28;;;4.25;77.38
40708;BME280;26392;42.696;23.350;2023-02-03T09:26:50;95873.53;;;4.13;74.97
40708;BME280;26392;42.696;23.350;2023-02-03T09:29:16;95880.97;;;4.11;75.36
40708;BME280;26392;42.696;23.350;2023-02-03T09:31:41;95896.19;;;4.25;75.13
40708;BME280;26392;42.696;23.350;2023-02-03T09:34:07;95881.88;;;4.31;73.10
40708;BME280;26392;42.696;23.350;2023-02-03T09:36:33;95889.53;;;4.21;74.32
40708;BME280;26392;42.696;23.350;2023-02-03T09:38:58;95890.78;;;4.18;75.18
40708;BME280;26392;42.696;23.350;2023-02-03T09:50:14;95882.69;;;4.18;77.14
40708;BME280;26392;42.696;23.350;2023-02-03T09:52:44;95878.88;;;4.06;75.87
40708;BME280;26392;42.696;23.350;2023-02-03T09:58:08;95886.19;;;4.12;71.00
40708;BME280;26392;42.696;23.350;2023-02-03T10:00:43;95868.50;;;4.03;71.84
40708;BME280;26392;42.696;23.350;2023-02-03T10:08:50;95874.13;;;4.08;70.31
40708;BME280;26392;42.696;23.350;2023-02-03T10:16:58;95865.44;;;4.19;66.74
40708;BME280;26392;42.696;23.350;2023-02-03T10:19:47;95874.38;;;4.20;64.30
40708;BME280;26392;42.696;23.350;2023-02-03T10:22:18;95867.53;;;4.17;65.64
40708;BME280;26392;42.696;23.350;2023-02-03T10:24:50;95864.78;;;4.11;64.62
40708;BME280;26392;42.696;23.350;2023-02-03T10:27:21;95862.34;;;4.16;64.01
40708;BME280;26392;42.696;23.350;2023-02-03T10:30:21;95856.13;;;4.15;63.62
40708;BME280;26392;42.696;23.350;2023-02-03T10:32:50;95858.97;;;4.07;64.55
40708;BME280;26392;42.696;23.350;2023-02-03T10:35:17;95854.88;;;4.24;63.68
40708;BME280;26392;42.696;23.350;2023-02-03T10:37:49;95855.94;;;4.30;61.70
40708;BME280;26392;42.696;23.350;2023-02-03T10:40:19;95860.09;;;4.26;61.99
40708;BME280;26392;42.696;23.350;2023-02-03T10:42:48;95858.66;;;4.37;60.69
40708;BME280;26392;42.696;23.350;2023-02-03T10:45:35;95842.69;;;4.42;59.38
40708;BME280;26392;42.696;23.350;2023-02-03T10:48:03;95859.97;;;4.54;60.73
40708;BME280;26392;42.696;23.350;2023-02-03T10:50:29;95874.53;;;4.66;61.55
40708;BME280;26392;42.696;23.350;2023-02-03T10:53:25;95865.19;;;4.69;58.80
40708;BME280;26392;42.696;23.350;2023-02-03T10:56:16;95869.72;;;4.48;55.75
40708;BME280;26392;42.696;23.350;2023-02-03T10:58:55;95872.00;;;4.52;56.40
40708;BME280;26392;42.696;23.350;2023-02-03T11:01:25;95856.22;;;4.55;56.27
40708;BME280;26392;42.696;23.350;2023-02-03T11:04:00;95855.41;;;4.61;55.92
40708;BME280;26392;42.696;23.350;2023-02-03T11:06:29;95862.06;;;4.65;55.51
40708;BME280;26392;42.696;23.350;2023-02-03T11:08:54;95835.03;;;4.52;54.46
40708;BME280;26392;42.696;23.350;2023-02-03T11:11:25;95851.28;;;4.72;54.73
40708;BME280;26392;42.696;23.350;2023-02-03T11:14:09;95849.38;;;4.59;53.63
40708;BME280;26392;42.696;23.350;2023-02-03T11:16:36;95847.06;;;4.49;53.67
40708;BME280;26392;42.696;23.350;2023-02-03T11:26:39;95830.69;;;4.64;53.96
40708;BME280;26392;42.696;23.350;2023-02-03T11:29:05;95825.97;;;4.80;53.15
40708;BME280;26392;42.696;23.350;2023-02-03T11:31:39;95817.22;;;4.84;52.50
40708;BME280;26392;42.696;23.350;2023-02-03T11:34:15;95818.25;;;5.03;52.86
40708;BME280;26392;42.696;23.350;2023-02-03T11:36:41;95828.03;;;5.11;53.19
40708;BME280;26392;42.696;23.350;2023-02-03T11:39:18;95835.09;;;5.12;53.56
40708;BME280;26392;42.696;23.350;2023-02-03T11:41:45;95823.28;;;4.93;54.04
40708;BME280;26392;42.696;23.350;2023-02-03T11:44:29;95816.81;;;4.87;54.64
40708;BME280;26392;42.696;23.350;2023-02-03T11:47:01;95809.53;;;4.68;54.57
40708;BME280;26392;42.696;23.350;2023-02-03T11:52:49;95799.56;;;4.62;52.08
40708;BME280;26392;42.696;23.350;2023-02-03T12:00:52;95821.81;;;4.70;50.80
40708;BME280;26392;42.696;23.350;2023-02-03T12:06:36;95802.50;;;4.74;49.95
40708;BME280;26392;42.696;23.350;2023-02-03T12:12:06;95797.28;;;4.85;48.19
40708;BME280;26392;42.696;23.350;2023-02-03T12:18:08;95798.97;;;4.93;48.67
40708;BME280;26392;42.696;23.350;2023-02-03T12:23:07;95792.53;;;5.07;47.35
40708;BME280;26392;42.696;23.350;2023-02-03T12:30:48;95803.72;;;4.71;47.13
40708;BME280;26392;42.696;23.350;2023-02-03T12:33:23;95808.28;;;4.64;47.36
40708;BME280;26392;42.696;23.350;2023-02-03T12:35:55;95797.72;;;4.62;46.74
40708;BME280;26392;42.696;23.350;2023-02-03T12:38:44;95808.31;;;4.70;46.28
40708;BME280;26392;42.696;23.350;2023-02-03T12:41:19;95807.44;;;4.63;47.22
40708;BME280;26392;42.696;23.350;2023-02-03T12:43:48;95796.03;;;4.55;47.04
40708;BME280;26392;42.696;23.350;2023-02-03T12:46:46;95800.34;;;4.42;48.21
40708;BME280;26392;42.696;23.350;2023-02-03T12:49:40;95785.63;;;4.32;49.21
40708;BME280;26392;42.696;23.350;2023-02-03T12:52:33;95795.63;;;4.51;49.35
40708;BME280;26392;42.696;23.350;2023-02-03T12:58:53;95785.44;;;4.46;49.36
40708;BME280;26392;42.696;23.350;2023-02-03T13:03:44;95763.44;;;4.63;50.19
40708;BME280;26392;42.696;23.350;2023-02-03T13:06:25;95756.59;;;4.60;50.79
40708;BME280;26392;42.696;23.350;2023-02-03T13:12:04;95772.72;;;4.34;52.44
40708;BME280;26392;42.696;23.350;2023-02-03T13:14:35;95773.56;;;4.28;51.95
40708;BME280;26392;42.696;23.350;2023-02-03T13:17:26;95762.34;;;4.24;51.30
40708;BME280;26392;42.696;23.350;2023-02-03T13:20:00;95749.91;;;4.36;51.08
40708;BME280;26392;42.696;23.350;2023-02-03T13:22:26;95742.66;;;4.30;51.77
40708;BME280;26392;42.696;23.350;2023-02-03T13:25:04;95763.59;;;4.15;52.99
40708;BME280;26392;42.696;23.350;2023-02-03T13:40:48;95741.78;;;4.10;52.67
40708;BME280;26392;42.696;23.350;2023-02-03T13:43:20;95755.28;;;4.16;53.27
40708;BME280;26392;42.696;23.350;2023-02-03T13:45:50;95737.84;;;4.19;53.17
40708;BME280;26392;42.696;23.350;2023-02-03T13:48:22;95749.69;;;4.18;53.43
40708;BME280;26392;42.696;23.350;2023-02-03T13:50:50;95757.97;;;4.16;53.80
40708;BME280;26392;42.696;23.350;2023-02-03T13:53:26;95751.53;;;4.04;54.85
40708;BME280;26392;42.696;23.350;2023-02-03T13:55:56;95754.81;;;3.93;55.48
40708;BME280;26392;42.696;23.350;2023-02-03T13:58:30;95760.97;;;3.80;56.37
40708;BME280;26392;42.696;23.350;2023-02-03T14:05:53;95771.69;;;3.60;59.62
40708;BME280;26392;42.696;23.350;2023-02-03T14:16:41;95763.03;;;3.78;61.11
40708;BME280;26392;42.696;23.350;2023-02-03T14:19:56;95763.50;;;3.81;60.64
40708;BME280;26392;42.696;23.350;2023-02-03T14:21:59;95775.97;;;3.96;59.97
40708;BME280;26392;42.696;23.350;2023-02-03T14:24:32;95763.97;;;3.98;59.85
40708;BME280;26392;42.696;23.350;2023-02-03T14:27:00;95762.91;;;3.99;59.11
40708;BME280;26392;42.696;23.350;2023-02-03T14:29:34;95754.41;;;3.96;59.63
40708;BME280;26392;42.696;23.350;2023-02-03T14:32:08;95763.13;;;4.04;59.53
40708;BME280;26392;42.696;23.350;2023-02-03T14:34:41;95761.50;;;4.03;59.64
40708;BME280;26392;42.696;23.350;2023-02-03T14:37:28;95764.81;;;4.12;59.23
40708;BME280;26392;42.696;23.350;2023-02-03T14:45:57;95759.84;;;4.22;57.98
40708;BME280;26392;42.696;23.350;2023-02-03T14:48:45;95759.44;;;4.25;57.48
40708;BME280;26392;42.696;23.350;2023-02-03T14:54:15;95754.91;;;4.33;57.59
40708;BME280;26392;42.696;23.350;2023-02-03T15:00:26;95727.06;;;4.12;57.71
40708;BME280;26392;42.696;23.350;2023-02-03T15:11:30;95712.88;;;3.70;53.57
40708;BME280;26392;42.696;23.350;2023-02-03T15:16:41;95721.75;;;3.64;53.81
40708;BME280;26392;42.696;23.350;2023-02-03T15:19:16;95702.84;;;3.57;53.99
40708;BME280;26392;42.696;23.350;2023-02-03T15:21:42;95690.22;;;3.58;54.08
40708;BME280;26392;42.696;23.350;2023-02-03T15:24:16;95705.31;;;3.52;54.96
40708;BME280;26392;42.696;23.350;2023-02-03T15:26:50;95690.38;;;3.43;54.91
40708;BME280;26392;42.696;23.350;2023-02-03T15:29:31;95688.09;;;3.40;55.09
40708;BME280;26392;42.696;23.350;2023-02-03T15:36:56;95694.13;;;3.42;56.42
40708;BME280;26392;42.696;23.350;2023-02-03T15:42:22;95687.84;;;3.35;57.40